createdAt,value
2023-04-18T00:01:45.255Z,9.40
2023-04-18T00:04:13.002Z,9.50
2023-04-18T00:06:40.488Z,8.20
2023-04-18T00:09:07.359Z,10.40
2023-04-18T00:11:34.552Z,9.80
2023-04-18T00:14:02.691Z,12.40
2023-04-18T00:16:29.535Z,9.30
2023-04-18T00:18:56.898Z,11.20
2023-04-18T00:21:25.173Z,14.20
2023-04-18T00:23:52.046Z,11.30
2023-04-18T00:26:18.976Z,11.50
2023-04-18T00:28:47.348Z,10.80
2023-04-18T00:31:14.191Z,10.80
2023-04-18T00:33:40.980Z,10.30
2023-04-18T00:36:07.817Z,12.80
2023-04-18T00:38:35.062Z,10.30
2023-04-18T00:41:01.831Z,9.00
2023-04-18T00:43:29.036Z,10.70
2023-04-18T00:45:56.650Z,10.80
2023-04-18T00:48:24.058Z,14.00
2023-04-18T00:50:51.406Z,9.20
2023-04-18T00:53:19.116Z,10.10
2023-04-18T00:55:45.885Z,11.20
2023-04-18T00:58:12.766Z,9.20
2023-04-18T01:00:40.436Z,10.30
2023-04-18T01:03:08.112Z,11.30
2023-04-18T01:05:35.866Z,10.10
2023-04-18T01:08:04.361Z,8.80
2023-04-18T01:10:35.669Z,11.60
2023-04-18T01:13:17.374Z,10.50
2023-04-18T01:15:46.809Z,12.70
2023-04-18T01:18:18.680Z,10.40
2023-04-18T01:20:51.374Z,14.30
2023-04-18T01:23:20.208Z,9.20
2023-04-18T01:25:51.112Z,10.40
2023-04-18T01:28:19.757Z,7.40
2023-04-18T01:30:46.589Z,7.60
2023-04-18T01:33:13.356Z,9.90
2023-04-18T01:35:40.304Z,8.00
2023-04-18T01:38:07.106Z,10.70
2023-04-18T01:40:33.854Z,16.80
2023-04-18T01:43:00.883Z,15.80
2023-04-18T01:45:27.600Z,15.90
2023-04-18T01:47:54.375Z,8.20
2023-04-18T01:50:21.168Z,6.70
2023-04-18T01:52:47.959Z,5.00
2023-04-18T01:55:16.044Z,9.80
2023-04-18T01:57:43.704Z,13.00
2023-04-18T02:00:11.280Z,17.00
2023-04-18T02:02:44.161Z,14.20
2023-04-18T02:05:11.157Z,15.20
2023-04-18T02:07:39.720Z,9.80
2023-04-18T02:10:06.871Z,7.90
2023-04-18T02:12:33.815Z,8.20
2023-04-18T02:15:00.766Z,11.30
2023-04-18T02:17:28.342Z,10.00
2023-04-18T02:19:55.354Z,8.60
2023-04-18T02:22:22.102Z,6.50
2023-04-18T02:24:48.840Z,6.10
2023-04-18T02:27:15.700Z,7.70
2023-04-18T02:29:42.427Z,6.40
2023-04-18T02:32:09.350Z,6.20
2023-04-18T02:34:36.574Z,5.80
2023-04-18T02:37:04.231Z,6.10
2023-04-18T02:39:31.958Z,4.90
2023-04-18T02:41:58.788Z,7.10
2023-04-18T02:44:25.554Z,8.30
2023-04-18T02:46:52.302Z,11.30
2023-04-18T02:49:19.509Z,14.20
2023-04-18T02:51:46.281Z,15.30
2023-04-18T02:54:13.465Z,15.10
2023-04-18T02:56:54.527Z,17.90
2023-04-18T02:59:28.990Z,11.00
2023-04-18T03:02:25.152Z,12.10
2023-04-18T03:04:56.032Z,12.90
2023-04-18T03:07:23.073Z,11.10
2023-04-18T03:09:50.880Z,9.00
2023-04-18T03:12:21.867Z,7.30
2023-04-18T03:14:48.712Z,7.00
2023-04-18T03:17:16.067Z,7.20
2023-04-18T03:19:51.117Z,8.20
2023-04-18T03:22:19.577Z,6.70
2023-04-18T03:24:55.414Z,6.00
2023-04-18T03:27:25.436Z,7.80
2023-04-18T03:29:54.355Z,6.90
2023-04-18T03:32:22.148Z,6.40
2023-04-18T03:34:49.040Z,7.60
2023-04-18T03:37:15.737Z,6.50
2023-04-18T03:39:46.077Z,7.20
2023-04-18T03:42:13.985Z,6.60
2023-04-18T03:44:41.931Z,6.80
2023-04-18T03:47:08.989Z,7.10
2023-04-18T03:49:38.528Z,5.70
2023-04-18T03:52:05.500Z,7.90
2023-04-18T03:54:32.352Z,6.00
2023-04-18T03:56:59.212Z,5.50
2023-04-18T03:59:26.694Z,6.00
2023-04-18T04:01:55.557Z,5.40
2023-04-18T04:04:22.735Z,5.40
2023-04-18T04:06:50.607Z,8.30
2023-04-18T04:09:19.464Z,8.10
2023-04-18T04:12:01.412Z,6.30
2023-04-18T04:14:47.121Z,4.70
2023-04-18T04:17:26.430Z,5.40
2023-04-18T04:20:03.656Z,10.80
2023-04-18T04:22:36.200Z,7.60
2023-04-18T04:25:29.318Z,6.70
2023-04-18T04:28:00.891Z,5.70
2023-04-18T04:30:28.214Z,6.50
2023-04-18T04:32:55.047Z,6.70
2023-04-18T04:35:22.157Z,6.20
2023-04-18T04:37:50.208Z,6.40
2023-04-18T04:40:29.183Z,6.10
2023-04-18T04:43:05.057Z,7.90
2023-04-18T04:45:38.463Z,7.60
2023-04-18T04:48:05.478Z,8.40
2023-04-18T04:50:41.377Z,9.00
2023-04-18T04:53:08.517Z,6.80
2023-04-18T04:55:35.647Z,6.80
2023-04-18T04:58:03.580Z,5.80
2023-04-18T05:00:42.551Z,5.80
2023-04-18T05:03:10.399Z,4.90
2023-04-18T05:05:37.806Z,5.50
2023-04-18T05:08:04.930Z,4.90
2023-04-18T05:10:32.649Z,4.40
2023-04-18T05:12:59.375Z,5.20
2023-04-18T05:15:26.082Z,5.70
2023-04-18T05:17:52.949Z,5.20
2023-04-18T05:20:19.708Z,4.60
2023-04-18T05:22:49.456Z,4.90
2023-04-18T05:25:16.350Z,4.30
2023-04-18T05:27:43.107Z,4.60
2023-04-18T05:30:10.107Z,5.00
2023-04-18T05:32:38.568Z,6.90
2023-04-18T05:35:07.059Z,6.20
2023-04-18T05:37:33.851Z,4.60
2023-04-18T05:40:01.056Z,5.40
2023-04-18T05:42:28.158Z,5.40
2023-04-18T05:44:55.169Z,5.90
2023-04-18T05:47:23.618Z,5.90
2023-04-18T05:49:50.495Z,5.40
2023-04-18T05:52:17.217Z,6.70
2023-04-18T05:54:43.930Z,4.90
2023-04-18T05:57:10.663Z,5.30
2023-04-18T05:59:38.185Z,3.90
2023-04-18T06:02:05.084Z,5.30
2023-04-18T06:04:32.128Z,5.70
2023-04-18T06:06:59.276Z,4.30
2023-04-18T06:09:26.179Z,4.60
2023-04-18T06:11:53.216Z,4.50
2023-04-18T06:14:20.230Z,5.20
2023-04-18T06:16:47.096Z,4.70
2023-04-18T06:19:13.978Z,4.50
2023-04-18T06:21:42.271Z,4.10
2023-04-18T06:24:09.393Z,3.90
2023-04-18T06:26:36.111Z,4.10
2023-04-18T06:29:02.916Z,3.80
2023-04-18T06:31:29.692Z,4.10
2023-04-18T06:33:56.666Z,4.60
2023-04-18T06:36:23.694Z,3.70
2023-04-18T06:38:50.503Z,4.50
2023-04-18T06:41:17.280Z,3.80
2023-04-18T06:43:55.768Z,4.30
2023-04-18T06:46:30.163Z,3.50
2023-04-18T06:48:57.214Z,4.60
2023-04-18T06:51:24.119Z,3.80
2023-04-18T06:53:53.177Z,3.60
2023-04-18T06:56:20.916Z,4.50
2023-04-18T06:58:48.340Z,4.00
2023-04-18T07:01:15.404Z,4.40
2023-04-18T07:03:42.355Z,3.30
2023-04-18T07:06:10.369Z,4.00
2023-04-18T07:08:37.345Z,4.20
2023-04-18T07:11:06.107Z,4.00
2023-04-18T07:13:32.904Z,3.60
2023-04-18T07:16:00.973Z,3.30
2023-04-18T07:18:37.504Z,3.60
2023-04-18T07:21:08.650Z,3.90
2023-04-18T07:23:36.122Z,3.50
2023-04-18T07:26:05.251Z,4.10
2023-04-18T07:28:32.557Z,3.40
2023-04-18T07:31:00.670Z,3.20
2023-04-18T07:33:31.018Z,3.70
2023-04-18T07:35:58.046Z,3.70
2023-04-18T07:38:24.921Z,3.60
2023-04-18T07:40:59.024Z,3.80
2023-04-18T07:43:26.512Z,3.40
2023-04-18T07:45:53.836Z,3.40
2023-04-18T07:48:24.785Z,4.00
2023-04-18T07:50:51.606Z,3.30
2023-04-18T07:53:18.680Z,3.40
2023-04-18T07:55:46.111Z,3.50
2023-04-18T07:58:13.693Z,4.00
2023-04-18T08:00:42.165Z,3.90
2023-04-18T08:03:12.963Z,3.40
2023-04-18T08:05:42.421Z,3.50
2023-04-18T08:08:10.982Z,3.60
2023-04-18T08:10:37.884Z,4.10
2023-04-18T08:13:06.247Z,4.00
2023-04-18T08:15:33.185Z,3.30
2023-04-18T08:18:00.588Z,3.60
2023-04-18T08:20:27.567Z,3.50
2023-04-18T08:23:06.250Z,3.80
2023-04-18T08:25:35.833Z,4.00
2023-04-18T08:28:03.405Z,3.40
2023-04-18T08:30:30.158Z,4.30
2023-04-18T08:32:57.014Z,3.70
2023-04-18T08:35:23.917Z,3.50
2023-04-18T08:37:50.673Z,3.60
2023-04-18T08:43:15.175Z,3.30
2023-04-18T08:45:44.266Z,3.10
2023-04-18T08:48:16.230Z,3.40
2023-04-18T08:50:44.921Z,3.60
2023-04-18T08:53:11.709Z,3.10
2023-04-18T08:55:40.261Z,2.90
2023-04-18T08:58:07.460Z,2.90
2023-04-18T09:00:34.720Z,3.70
2023-04-18T09:03:02.441Z,3.90
2023-04-18T09:05:29.406Z,3.00
2023-04-18T09:07:56.761Z,3.50
2023-04-18T09:10:33.049Z,4.60
2023-04-18T09:13:02.970Z,3.90
2023-04-18T09:15:30.095Z,3.90
2023-04-18T09:17:58.983Z,4.10
2023-04-18T09:20:36.006Z,3.60
2023-04-18T09:23:05.493Z,3.80
2023-04-18T09:25:45.613Z,3.50
2023-04-18T09:28:22.666Z,3.80
2023-04-18T09:44:15.992Z,4.20
2023-04-18T09:46:47.173Z,4.10
2023-04-18T09:49:22.591Z,4.00
2023-04-18T09:51:55.047Z,5.30
2023-04-18T09:54:48.694Z,3.60
2023-04-18T09:57:36.149Z,4.40
2023-04-18T10:00:16.883Z,4.20
2023-04-18T10:03:46.827Z,4.30
2023-04-18T10:06:17.748Z,5.70
2023-04-18T10:08:54.181Z,5.60
2023-04-18T10:11:21.612Z,6.00
2023-04-18T10:14:09.600Z,5.40
2023-04-18T10:16:38.124Z,5.00
2023-04-18T10:19:25.411Z,5.90
2023-04-18T10:22:00.577Z,4.40
2023-04-18T10:24:45.618Z,4.80
2023-04-18T10:27:12.466Z,4.90
2023-04-18T10:29:51.567Z,4.60
2023-04-18T10:32:21.662Z,4.80
2023-04-18T10:35:11.613Z,4.50
2023-04-18T10:37:51.538Z,3.60
2023-04-18T10:40:32.742Z,3.30
2023-04-18T10:43:21.346Z,3.40
2023-04-18T10:46:23.801Z,3.30
2023-04-18T10:49:14.498Z,8.30
2023-04-18T10:51:42.510Z,16.30
2023-04-18T10:54:12.570Z,17.90
2023-04-18T10:56:39.632Z,9.80
2023-04-18T10:59:11.701Z,31.20
2023-04-18T11:02:03.835Z,14.10
2023-04-18T11:04:40.775Z,44.90
2023-04-18T11:07:07.811Z,25.60
2023-04-18T11:09:34.594Z,79.00
2023-04-18T11:12:07.281Z,37.50
2023-04-18T11:14:41.142Z,11.10
2023-04-18T11:17:19.836Z,13.80
2023-04-18T11:19:47.577Z,10.10
2023-04-18T11:22:14.917Z,19.00
2023-04-18T11:24:41.940Z,7.00
2023-04-18T11:27:10.629Z,10.50
2023-04-18T11:29:37.927Z,12.30
2023-04-18T11:32:09.054Z,28.30
2023-04-18T11:34:36.136Z,24.50
2023-04-18T11:37:07.647Z,17.20
2023-04-18T11:39:35.970Z,27.70
2023-04-18T11:42:02.981Z,17.20
2023-04-18T11:44:29.883Z,10.10
2023-04-18T11:46:56.662Z,15.90
2023-04-18T11:49:27.929Z,30.80
2023-04-18T11:51:55.319Z,12.00
2023-04-18T11:54:43.686Z,15.60
2023-04-18T11:57:24.220Z,64.90
2023-04-18T11:59:53.321Z,20.10
2023-04-18T12:02:22.004Z,8.20
2023-04-18T12:04:52.796Z,13.00
2023-04-18T12:07:34.230Z,16.70
2023-04-18T12:10:02.528Z,7.60
2023-04-18T12:12:29.367Z,8.00
2023-04-18T12:15:05.050Z,12.80
2023-04-18T12:17:32.175Z,9.50
2023-04-18T12:20:02.254Z,5.80
2023-04-18T12:22:49.460Z,10.00
2023-04-18T12:25:23.519Z,6.00
2023-04-18T12:28:00.485Z,9.20
2023-04-18T12:30:36.839Z,6.20
2023-04-18T12:33:04.673Z,8.90
2023-04-18T12:35:32.467Z,5.20
2023-04-18T12:38:01.118Z,6.80
2023-04-18T12:40:29.578Z,4.30
2023-04-18T12:42:56.559Z,4.80
2023-04-18T12:45:23.986Z,5.80
2023-04-18T12:47:51.859Z,3.60
2023-04-18T12:50:21.541Z,10.20
2023-04-18T12:52:51.055Z,5.10
2023-04-18T12:55:18.058Z,4.90
2023-04-18T12:57:45.071Z,5.10
2023-04-18T13:00:13.100Z,5.30
2023-04-18T13:02:43.202Z,7.20
2023-04-18T13:05:13.129Z,5.10
2023-04-18T13:07:42.226Z,4.40
2023-04-18T13:10:14.296Z,7.50
2023-04-18T13:12:41.436Z,9.10
2023-04-18T13:15:09.576Z,5.20
2023-04-18T13:17:38.341Z,4.10
2023-04-18T13:20:10.189Z,4.10
2023-04-18T13:22:37.745Z,5.20
2023-04-18T13:25:06.726Z,4.80
2023-04-18T13:27:33.841Z,4.90
2023-04-18T13:30:00.844Z,7.80
2023-04-18T13:32:27.694Z,6.30
2023-04-18T13:34:55.735Z,7.00
2023-04-18T13:37:23.561Z,5.60
2023-04-18T13:39:50.266Z,6.20
2023-04-18T13:42:18.770Z,6.70
2023-04-18T13:44:46.071Z,4.90
2023-04-18T13:47:13.106Z,5.20
2023-04-18T13:49:40.425Z,8.30
2023-04-18T13:52:07.303Z,6.40
2023-04-18T13:54:34.144Z,5.10
2023-04-18T13:57:02.755Z,6.90
2023-04-18T13:59:32.814Z,5.90
2023-04-18T14:01:59.817Z,6.30
2023-04-18T14:04:27.542Z,4.80
2023-04-18T14:06:54.652Z,5.00
2023-04-18T14:09:21.520Z,6.00
2023-04-18T14:11:48.318Z,6.00
2023-04-18T14:14:15.230Z,6.00
2023-04-18T14:16:42.229Z,5.50
2023-04-18T14:19:09.264Z,6.20
2023-04-18T14:21:36.544Z,7.50
2023-04-18T14:24:05.321Z,8.00
2023-04-18T14:26:32.223Z,9.10
2023-04-18T14:28:59.013Z,8.60
2023-04-18T14:31:27.653Z,8.30
2023-04-18T14:33:54.554Z,6.40
2023-04-18T14:36:21.556Z,5.30
2023-04-18T14:38:49.613Z,4.80
2023-04-18T14:41:16.539Z,5.10
2023-04-18T14:43:43.383Z,4.20
2023-04-18T14:46:16.037Z,4.60
2023-04-18T14:48:46.868Z,7.00
2023-04-18T14:51:16.822Z,5.30
2023-04-18T14:53:44.527Z,5.80
2023-04-18T14:56:11.424Z,6.50
2023-04-18T14:58:38.200Z,4.90
2023-04-18T15:01:05.269Z,5.20
2023-04-18T15:03:32.641Z,5.80
2023-04-18T15:06:00.258Z,5.00
2023-04-18T15:08:27.327Z,6.30
2023-04-18T15:10:54.085Z,5.00
2023-04-18T15:13:20.877Z,5.00
2023-04-18T15:15:55.687Z,5.20
2023-04-18T15:18:22.484Z,4.90
2023-04-18T15:20:49.769Z,5.20
2023-04-18T15:23:16.702Z,4.90
2023-04-18T15:25:45.060Z,5.30
2023-04-18T15:28:13.464Z,4.70
2023-04-18T15:30:40.483Z,5.30
2023-04-18T15:33:09.004Z,6.40
2023-04-18T15:35:35.842Z,5.40
2023-04-18T15:38:02.676Z,6.00
2023-04-18T15:40:29.886Z,5.60
2023-04-18T15:42:58.816Z,7.00
2023-04-18T15:45:25.797Z,6.00
2023-04-18T15:47:53.373Z,5.00
2023-04-18T15:50:20.536Z,4.70
2023-04-18T15:52:48.163Z,5.40
2023-04-18T15:55:15.161Z,4.90
2023-04-18T15:57:42.038Z,7.20
2023-04-18T16:00:15.549Z,5.30
2023-04-18T16:02:46.237Z,5.50
2023-04-18T16:05:13.648Z,7.20
2023-04-18T16:07:41.933Z,6.40
2023-04-18T16:10:10.516Z,5.20
2023-04-18T16:12:39.034Z,3.90
2023-04-18T16:15:07.787Z,4.90
2023-04-18T16:17:36.073Z,6.90
2023-04-18T16:20:03.470Z,5.60
2023-04-18T16:22:30.330Z,5.10
2023-04-18T16:24:57.186Z,7.00
2023-04-18T16:27:23.999Z,7.20
2023-04-18T16:29:50.974Z,8.30
2023-04-18T16:32:17.810Z,7.70
2023-04-18T16:34:45.055Z,6.70
2023-04-18T16:37:11.930Z,8.20
2023-04-18T16:39:38.718Z,8.90
2023-04-18T16:42:05.499Z,11.60
2023-04-18T16:44:32.730Z,9.40
2023-04-18T16:46:59.975Z,8.20
2023-04-18T16:49:27.099Z,12.30
2023-04-18T16:51:53.893Z,10.40
2023-04-18T16:54:20.778Z,9.80
2023-04-18T16:56:47.902Z,9.20
2023-04-18T16:59:15.137Z,9.30
2023-04-18T17:01:41.995Z,15.50
2023-04-18T17:04:08.967Z,11.20
2023-04-18T17:06:35.955Z,8.60
2023-04-18T17:09:05.716Z,8.60
2023-04-18T17:11:37.443Z,9.30
2023-04-18T17:14:08.059Z,8.10
2023-04-18T17:16:38.169Z,7.80
2023-04-18T17:19:05.563Z,7.20
2023-04-18T17:21:34.186Z,7.90
2023-04-18T17:24:03.374Z,6.80
2023-04-18T17:26:30.657Z,7.40
2023-04-18T17:28:58.447Z,6.20
2023-04-18T17:31:25.351Z,6.70
2023-04-18T17:33:53.991Z,8.00
2023-04-18T17:36:20.970Z,6.10
2023-04-18T17:38:50.688Z,6.40
2023-04-18T17:41:19.531Z,8.40
2023-04-18T17:43:47.361Z,8.50
2023-04-18T17:46:14.416Z,9.00
2023-04-18T17:48:41.204Z,8.20
2023-04-18T17:51:08.323Z,8.00
2023-04-18T17:53:35.269Z,9.60
2023-04-18T17:56:03.265Z,8.70
2023-04-18T17:58:30.698Z,8.70
2023-04-18T18:00:57.917Z,10.80
2023-04-18T18:03:25.063Z,9.80
2023-04-18T18:05:54.463Z,11.50
2023-04-18T18:08:22.342Z,11.20
2023-04-18T18:10:49.293Z,9.90
2023-04-18T18:13:16.092Z,11.00
2023-04-18T18:15:42.934Z,11.20
2023-04-18T18:18:11.058Z,10.30
2023-04-18T18:20:41.599Z,10.60
2023-04-18T18:23:08.719Z,14.80
2023-04-18T18:25:37.263Z,12.20
2023-04-18T18:28:04.248Z,10.50
2023-04-18T18:30:31.373Z,14.10
2023-04-18T18:32:58.513Z,12.10
2023-04-18T18:35:25.487Z,12.00
2023-04-18T18:37:52.780Z,12.20
2023-04-18T18:40:19.880Z,12.20
2023-04-18T18:42:48.934Z,11.50
2023-04-18T18:45:15.821Z,11.50
2023-04-18T18:47:42.976Z,13.50
2023-04-18T18:50:10.151Z,13.80
2023-04-18T18:52:37.174Z,12.70
2023-04-18T18:55:04.470Z,12.40
2023-04-18T18:57:31.770Z,11.50
2023-04-18T18:59:58.609Z,11.10
2023-04-18T19:02:25.863Z,13.20
2023-04-18T19:04:53.395Z,12.80
2023-04-18T19:07:20.813Z,13.00
2023-04-18T19:09:47.570Z,10.60
2023-04-18T19:12:14.394Z,11.50
2023-04-18T19:14:42.438Z,13.50
2023-04-18T19:17:09.424Z,13.00
2023-04-18T19:19:36.197Z,11.80
2023-04-18T19:22:03.229Z,10.30
2023-04-18T19:24:31.346Z,10.20
2023-04-18T19:26:59.218Z,10.30
2023-04-18T19:29:26.144Z,11.50
2023-04-18T19:31:52.975Z,10.20
2023-04-18T19:34:21.360Z,9.50
2023-04-18T19:36:48.428Z,9.60
2023-04-18T19:39:15.891Z,9.40
2023-04-18T19:41:42.739Z,9.20
2023-04-18T19:44:09.524Z,12.40
2023-04-18T19:46:36.411Z,9.30
2023-04-18T19:49:03.374Z,9.60
2023-04-18T19:51:30.725Z,10.30
2023-04-18T19:53:57.510Z,9.90
2023-04-18T19:56:24.358Z,8.80
2023-04-18T19:58:51.097Z,8.90
2023-04-18T20:01:19.741Z,10.10
2023-04-18T20:03:47.420Z,13.60
2023-04-18T20:06:16.536Z,10.70
2023-04-18T20:08:45.170Z,10.50
2023-04-18T20:11:15.862Z,9.80
2023-04-18T20:13:42.703Z,9.80
2023-04-18T20:16:10.926Z,12.20
2023-04-18T20:18:39.597Z,10.30
2023-04-18T20:21:07.673Z,10.30
2023-04-18T20:23:35.771Z,10.40
2023-04-18T20:26:03.794Z,12.80
2023-04-18T20:28:31.506Z,12.70
2023-04-18T20:30:58.869Z,10.00
2023-04-18T20:33:25.761Z,9.30
2023-04-18T20:35:54.231Z,13.30
2023-04-18T20:38:25.599Z,10.30
2023-04-18T20:40:53.519Z,11.50
2023-04-18T20:43:20.885Z,10.40
2023-04-18T20:45:51.130Z,9.40
2023-04-18T20:48:18.280Z,9.40
2023-04-18T20:50:50.489Z,10.00
2023-04-18T20:53:21.934Z,9.30
2023-04-18T20:55:48.810Z,10.10
2023-04-18T20:58:15.787Z,12.40
2023-04-18T21:00:44.154Z,12.50
2023-04-18T21:03:15.328Z,13.20
2023-04-18T21:05:43.693Z,12.70
2023-04-18T21:08:10.897Z,12.10
2023-04-18T21:10:37.658Z,10.80
2023-04-18T21:13:04.407Z,10.70
2023-04-18T21:15:31.270Z,11.40
2023-04-18T21:17:58.048Z,10.80
2023-04-18T21:20:25.129Z,10.20
2023-04-18T21:22:52.024Z,9.90
2023-04-18T21:25:20.627Z,12.30
2023-04-18T21:27:49.912Z,10.90
2023-04-18T21:30:16.892Z,9.90
2023-04-18T21:32:44.395Z,9.90
2023-04-18T21:35:11.425Z,11.90
2023-04-18T21:37:38.234Z,9.40
2023-04-18T21:40:06.023Z,11.90
2023-04-18T21:42:34.627Z,9.70
2023-04-18T21:45:01.949Z,12.20
2023-04-18T21:47:29.114Z,11.30
2023-04-18T21:49:56.128Z,9.50
2023-04-18T21:52:22.974Z,10.50
2023-04-18T21:54:49.746Z,9.70
2023-04-18T21:57:16.495Z,10.30
2023-04-18T21:59:43.395Z,10.60
2023-04-18T22:02:10.465Z,10.50
2023-04-18T22:04:42.227Z,11.20
2023-04-18T22:07:10.875Z,9.60
2023-04-18T22:09:37.735Z,11.50
2023-04-18T22:12:04.783Z,11.20
2023-04-18T22:14:31.851Z,11.50
2023-04-18T22:17:01.246Z,11.50
2023-04-18T22:19:28.879Z,11.80
2023-04-18T22:21:55.893Z,9.70
2023-04-18T22:24:22.850Z,9.30
2023-04-18T22:26:49.792Z,11.60
2023-04-18T22:29:16.548Z,10.40
2023-04-18T22:31:43.505Z,11.00
2023-04-18T22:34:10.209Z,9.80
2023-04-18T22:36:37.216Z,12.50
2023-04-18T22:39:04.214Z,10.20
2023-04-18T22:41:31.073Z,10.00
2023-04-18T22:43:57.815Z,10.70
2023-04-18T22:46:24.645Z,8.90
2023-04-18T22:48:51.623Z,9.40
2023-04-18T22:51:19.680Z,9.30
2023-04-18T22:53:46.532Z,9.10
2023-04-18T22:56:13.293Z,10.60
2023-04-18T22:58:39.993Z,8.90
2023-04-18T23:01:06.781Z,10.00
2023-04-18T23:03:33.847Z,7.80
2023-04-18T23:06:00.998Z,10.20
2023-04-18T23:08:27.938Z,10.60
2023-04-18T23:10:54.637Z,9.90
2023-04-18T23:13:21.530Z,9.60
2023-04-18T23:15:48.400Z,9.80
2023-04-18T23:18:15.266Z,9.80
2023-04-18T23:20:42.045Z,9.50
2023-04-18T23:23:08.836Z,9.50
2023-04-18T23:25:35.601Z,9.20
2023-04-18T23:28:02.328Z,9.40
2023-04-18T23:30:29.174Z,7.80
2023-04-18T23:32:55.973Z,9.40
2023-04-18T23:35:22.720Z,9.10
2023-04-18T23:37:49.732Z,8.30
2023-04-18T23:40:16.635Z,8.30
2023-04-18T23:42:43.723Z,8.60
2023-04-18T23:45:11.100Z,8.00
2023-04-18T23:47:38.237Z,7.00
2023-04-18T23:50:05.730Z,7.40
2023-04-18T23:52:32.522Z,7.70
2023-04-18T23:55:00.384Z,7.80
2023-04-18T23:57:27.373Z,6.90
2023-04-18T23:59:54.119Z,7.40
